Terminal Aerodrome Forecast
Issued by NWS Blacksburg, VA

Home | Current Version | Previous Version | Text Only | Print | Product List | Glossary On
Versions: 1 2 3 4 5 6 7 8 9 10 11 12 13 14
000
FTUS41 KRNK 181722
TAFDAN
TAF
KDAN 181722Z 1818/1918 25006KT P6SM SCT045
     FM182000 22007KT P6SM VCTS SCT050CB
      TEMPO 1820/1823 2SM TSRA OVC035CB
     FM190000 27005KT P6SM VCSH OVC050
     FM190400 26004KT P6SM SCT050
     FM191400 VRB03KT P6SM SCT250=

USA.gov is the U.S. government's official web portal to all federal, state and local government web resources and services.